Time;durP1;ratioP1;P1;durP2;ratioP2;P2;SDS_P1;SDS_P2;PMS_P1;PMS_P2;Temp;Humidity;BMP_temperature;BMP_pressure;BME280_temperature;BME280_humidity;BME280_pressure;Samples;Min_cycle;Max_cycle;Signal;HPM_P1;HPM_P2
2023/12/31 00:00:09;;;;;;;2.97;2.78;;;;;;;1.00;89.87;99782.03;5093240;28;19967;-69
2023/12/31 00:02:40;;;;;;;5.97;3.67;;;;;;;0.94;89.41;99784.28;5093207;28;20052;-69
2023/12/31 00:05:09;;;;;;;5.55;3.38;;;;;;;0.89;90.43;99779.91;5092972;28;20050;-69
2023/12/31 00:07:38;;;;;;;6.30;3.35;;;;;;;0.87;89.35;99779.84;5093095;28;20115;-69
2023/12/31 00:10:09;;;;;;;4.57;4.13;;;;;;;0.86;89.69;99777.28;5093673;28;20068;-69
2023/12/31 00:12:38;;;;;;;3.92;3.38;;;;;;;0.86;89.80;99782.31;5093183;28;20056;-69
2023/12/31 00:15:07;;;;;;;3.90;3.60;;;;;;;0.94;90.33;99786.81;5092988;28;20044;-68
2023/12/31 00:17:36;;;;;;;4.95;3.05;;;;;;;0.99;89.64;99787.84;5093204;28;20568;-69
2023/12/31 00:20:08;;;;;;;4.83;4.33;;;;;;;0.98;89.55;99783.63;5093310;28;20043;-68
2023/12/31 00:22:37;;;;;;;4.45;4.05;;;;;;;0.94;90.09;99774.25;5093258;28;20268;-69
2023/12/31 00:25:07;;;;;;;4.78;4.32;;;;;;;0.83;89.55;99772.13;5091697;28;20071;-69
2023/12/31 00:27:36;;;;;;;6.53;5.07;;;;;;;0.83;90.12;99778.00;5093179;28;20051;-69
2023/12/31 00:30:06;;;;;;;2.45;2.25;;;;;;;0.82;90.06;99781.31;5093477;28;20436;-69
2023/12/31 00:32:36;;;;;;;5.15;4.65;;;;;;;0.83;89.84;99772.13;5092537;28;20063;-69
2023/12/31 00:35:07;;;;;;;4.32;3.35;;;;;;;0.83;89.65;99778.00;5093239;28;20375;-69
2023/12/31 00:37:36;;;;;;;3.45;3.15;;;;;;;0.85;89.55;99775.53;5092039;28;20040;-69
2023/12/31 00:40:06;;;;;;;6.27;5.27;;;;;;;0.80;89.31;99782.03;5093259;28;20127;-69
2023/12/31 00:42:35;;;;;;;2.95;2.65;;;;;;;0.74;89.68;99776.78;5096952;28;20051;-69
2023/12/31 00:45:05;;;;;;;2.75;2.53;;;;;;;0.63;89.27;99766.31;5095629;28;20123;-69
2023/12/31 00:47:34;;;;;;;;;;;;;;;0.68;89.22;99769.88;5097232;28;20544;-69
2023/12/31 00:50:03;;;;;;;4.68;2.67;;;;;;;0.61;89.86;99770.41;5096744;28;19920;-69
2023/12/31 00:52:34;;;;;;;6.00;4.63;;;;;;;0.55;89.68;99771.03;5095454;28;20044;-69
2023/12/31 00:55:03;;;;;;;5.60;3.38;;;;;;;0.61;89.30;99767.91;5095468;28;20040;-69
2023/12/31 00:57:32;;;;;;;3.03;2.80;;;;;;;0.68;89.80;99769.88;5095124;28;20040;-69
2023/12/31 01:00:01;;;;;;;5.55;4.97;;;;;;;0.62;89.07;99767.13;5096526;28;20052;-69
2023/12/31 01:02:30;;;;;;;4.57;4.18;;;;;;;0.60;89.59;99768.72;5095178;28;20062;-69
2023/12/31 01:04:59;;;;;;;5.57;4.43;;;;;;;0.65;89.44;99769.75;5094906;28;20221;-69
2023/12/31 01:07:29;;;;;;;5.32;4.93;;;;;;;0.57;88.66;99764.44;5096371;28;20291;-69
2023/12/31 01:09:59;;;;;;;4.63;4.30;;;;;;;0.50;88.83;99766.63;5095239;28;20043;-69
2023/12/31 01:12:28;;;;;;;2.42;2.22;;;;;;;0.41;89.25;99766.25;5096362;28;20048;-69
2023/12/31 01:14:57;;;;;;;4.70;4.30;;;;;;;0.36;88.60;99765.22;5095105;28;20144;-69
2023/12/31 01:17:26;;;;;;;6.22;3.35;;;;;;;0.32;89.02;99765.88;5094948;28;20036;-69
2023/12/31 01:19:56;;;;;;;3.90;3.60;;;;;;;0.26;88.50;99760.63;5095969;28;20048;-69
2023/12/31 01:22:25;;;;;;;4.07;3.77;;;;;;;0.16;88.38;99761.03;5094959;28;20044;-69
2023/12/31 01:24:55;;;;;;;1.83;1.73;;;;;;;0.16;88.76;99758.53;5096070;28;20124;-69
2023/12/31 01:27:26;;;;;;;2.13;1.98;;;;;;;0.11;88.71;99753.31;5094465;28;20043;-69
2023/12/31 01:29:54;;;;;;;5.20;4.70;;;;;;;0.09;87.83;99756.56;5094861;28;20044;-69
2023/12/31 01:32:23;;;;;;;1.85;1.75;;;;;;;0.08;88.58;99754.81;5095966;28;20048;-70
2023/12/31 01:34:55;;;;;;;6.40;4.43;;;;;;;-0.03;87.83;99742.72;5094673;28;20094;-70
2023/12/31 01:37:24;;;;;;;3.53;3.20;;;;;;;0.02;88.53;99752.06;5094629;28;20051;-69
2023/12/31 01:39:56;;;;;;;2.88;2.63;;;;;;;0.08;88.51;99752.31;5094226;28;20056;-69
2023/12/31 01:42:27;;;;;;;8.23;4.22;;;;;;;0.17;88.63;99755.22;5096050;28;20094;-69
2023/12/31 01:44:58;;;;;;;6.78;4.03;;;;;;;0.12;88.57;99751.66;5094455;28;20052;-70
2023/12/31 01:47:27;;;;;;;4.25;3.88;;;;;;;0.05;88.00;99759.75;5095362;28;20040;-70
2023/12/31 01:49:56;;;;;;;3.10;2.17;;;;;;;0.06;87.98;99748.91;5095806;28;20048;-70
2023/12/31 01:52:25;;;;;;;2.90;2.65;;;;;;;0.17;88.27;99756.06;5093803;28;20074;-69
2023/12/31 01:54:54;;;;;;;6.35;5.63;;;;;;;0.15;88.00;99746.75;5095441;28;20040;-69
2023/12/31 01:57:28;;;;;;;7.05;4.57;;;;;;;0.10;88.21;99743.22;5095212;28;20037;-69
2023/12/31 01:59:59;;;;;;;4.93;4.32;;;;;;;0.09;88.22;99741.50;5094118;28;20389;-69
2023/12/31 02:02:29;;;;;;;4.85;4.45;;;;;;;0.10;87.81;99738.22;5077114;28;20398;-69
2023/12/31 02:04:58;;;;;;;3.92;3.65;;;;;;;0.11;88.03;99734.91;5093494;28;20363;-70
2023/12/31 02:07:27;;;;;;;2.40;2.20;;;;;;;0.11;87.80;99735.75;5093817;28;20071;-69
2023/12/31 02:09:55;;;;;;;4.80;2.63;;;;;;;0.10;87.88;99733.19;5094097;28;20101;-69
2023/12/31 02:12:26;;;;;;;4.78;4.30;;;;;;;0.15;88.39;99731.69;5076754;28;20277;-69
2023/12/31 02:14:55;;;;;;;2.03;1.88;;;;;;;0.16;88.13;99733.44;5094773;28;20050;-69
2023/12/31 02:17:24;;;;;;;2.15;1.95;;;;;;;0.16;87.75;99730.91;5094925;28;20093;-70
2023/12/31 02:19:53;;;;;;;3.30;3.10;;;;;;;0.17;87.94;99725.13;5093318;28;20035;-70
2023/12/31 02:22:22;;;;;;;1.00;1.00;;;;;;;0.18;87.90;99721.81;5093396;28;20040;-70
2023/12/31 02:24:54;;;;;;;5.40;3.80;;;;;;;0.18;88.00;99716.78;5094437;28;20685;-70
2023/12/31 02:27:26;;;;;;;4.82;3.38;;;;;;;0.18;88.21;99709.25;5094746;28;20048;-70
2023/12/31 02:30:00;;;;;;;3.10;2.72;;;;;;;0.19;88.57;99708.47;5094302;28;20123;-70
2023/12/31 02:32:31;;;;;;;3.28;2.95;;;;;;;0.19;87.77;99705.97;5094694;28;20056;-70
2023/12/31 02:34:59;;;;;;;4.83;4.07;;;;;;;0.22;87.73;99701.06;5093052;28;20032;-71
2023/12/31 02:37:30;;;;;;;5.15;4.68;;;;;;;0.26;87.82;99700.41;5093085;28;20734;-70
2023/12/31 02:39:59;;;;;;;2.15;1.95;;;;;;;0.27;88.64;99699.59;5092947;28;20040;-70
2023/12/31 02:42:29;;;;;;;6.18;4.68;;;;;;;0.23;87.99;99696.09;5094466;28;20114;-69
2023/12/31 02:44:59;;;;;;;3.75;3.40;;;;;;;0.23;88.58;99698.63;5076230;28;20061;-69
2023/12/31 02:47:28;;;;;;;7.80;2.97;;;;;;;0.22;87.73;99693.53;5092597;28;20056;-71
2023/12/31 02:49:57;;;;;;;1.60;1.50;;;;;;;0.22;88.21;99694.38;5092716;28;20044;-70
2023/12/31 02:52:26;;;;;;;3.45;2.72;;;;;;;0.28;87.85;99688.75;5093937;28;20067;-70
2023/12/31 02:54:56;;;;;;;2.45;2.25;;;;;;;0.32;88.04;99685.56;5094552;28;20478;-71
2023/12/31 02:57:26;;;;;;;7.38;4.95;;;;;;;0.36;88.57;99677.38;5093846;28;20040;-69
2023/12/31 02:59:56;;;;;;;2.00;1.83;;;;;;;0.35;88.48;99680.69;5094065;28;20194;-70
2023/12/31 03:02:25;;;;;;;2.03;1.92;;;;;;;0.32;88.34;99676.38;5092343;28;20129;-70
2023/12/31 03:04:54;;;;;;;3.90;3.60;;;;;;;0.36;88.61;99672.38;5092003;28;20052;-70
2023/12/31 03:07:23;;;;;;;3.60;3.00;;;;;;;0.37;88.39;99661.50;5075840;28;20040;-69
2023/12/31 03:09:51;;;;;;;1.55;1.45;;;;;;;0.03;87.97;99600.75;5092828;28;20488;-70
2023/12/31 03:12:20;;;;;;;1.65;1.55;;;;;;;0.39;88.61;99654.91;5092512;28;20433;-70
2023/12/31 03:14:49;;;;;;;1.27;1.23;;;;;;;0.41;88.44;99651.66;5094234;28;20037;-70
2023/12/31 03:17:19;;;;;;;0.68;0.68;;;;;;;0.44;88.29;99658.44;5093886;28;20124;-71
2023/12/31 03:19:50;;;;;;;4.32;3.50;;;;;;;0.45;88.01;99658.53;5092488;28;20039;-70
2023/12/31 03:22:19;;;;;;;0.90;0.90;;;;;;;0.45;88.26;99648.47;5094202;28;20052;-71
2023/12/31 03:25:06;;;;;;;2.28;1.95;;;;;;;0.54;88.31;99652.97;5092684;28;20046;-71
2023/12/31 03:27:35;;;;;;;2.47;2.28;;;;;;;0.53;87.91;99659.66;5093741;28;20044;-70
2023/12/31 03:30:05;;;;;;;5.77;4.67;;;;;;;0.54;88.50;99658.00;5093938;28;20478;-70
2023/12/31 03:32:35;;;;;;;2.65;2.42;;;;;;;0.50;88.08;99641.97;5094080;28;20071;-71
2023/12/31 03:35:05;;;;;;;2.13;1.70;;;;;;;0.49;88.39;99635.25;5093743;28;20052;-70
2023/12/31 03:37:34;;;;;;;;;;;;;;;0.53;88.16;99643.72;5094151;28;20127;-70
2023/12/31 03:40:03;;;;;;;0.73;0.73;;;;;;;0.51;88.81;99642.81;5092253;28;19924;-71
2023/12/31 03:42:34;;;;;;;1.38;1.27;;;;;;;0.50;88.93;99636.09;5093250;28;20131;-70
2023/12/31 03:45:03;;;;;;;2.30;2.20;;;;;;;0.49;88.66;99640.25;5093574;28;20155;-70
2023/12/31 03:47:32;;;;;;;11.38;4.50;;;;;;;0.53;89.15;99629.53;5093437;28;20521;-69
2023/12/31 03:50:02;;;;;;;1.05;0.90;;;;;;;0.56;88.93;99628.78;5093572;28;20040;-70
2023/12/31 03:52:32;;;;;;;0.88;0.88;;;;;;;0.55;88.13;99627.09;5092370;28;20058;-71
2023/12/31 03:55:02;;;;;;;1.15;1.08;;;;;;;0.51;88.52;99618.56;5094125;28;20036;-70
2023/12/31 03:57:31;;;;;;;2.47;2.28;;;;;;;0.48;88.52;99607.56;5092088;28;20048;-71
2023/12/31 04:00:02;;;;;;;3.07;1.93;;;;;;;0.55;89.01;99619.56;5091670;28;20036;-70
2023/12/31 04:02:32;;;;;;;2.28;2.15;;;;;;;0.54;88.78;99618.69;5093568;28;20039;-71
2023/12/31 04:05:04;;;;;;;2.00;1.80;;;;;;;0.57;88.96;99623.84;5091891;28;20048;-70
2023/12/31 04:07:33;;;;;;;0.90;0.90;;;;;;;0.56;88.23;99622.13;5093697;28;20268;-70
2023/12/31 04:10:02;;;;;;;1.27;1.20;;;;;;;0.58;89.03;99612.97;5093215;28;20097;-70
2023/12/31 04:12:31;;;;;;;3.90;2.33;;;;;;;0.58;88.97;99609.59;5093400;28;20548;-70
2023/12/31 04:15:00;;;;;;;0.90;0.90;;;;;;;0.56;89.00;99611.22;5095003;28;20036;-70
2023/12/31 04:17:29;;;;;;;0.88;0.88;;;;;;;0.57;88.57;99612.94;5097293;28;20032;-70
2023/12/31 04:19:58;;;;;;;1.70;1.60;;;;;;;0.60;89.42;99605.53;5097094;28;20040;-70
2023/12/31 04:22:29;;;;;;;0.73;0.73;;;;;;;0.59;89.32;99596.28;5096778;28;20436;-70
2023/12/31 04:24:58;;;;;;;2.70;2.50;;;;;;;0.62;88.80;99606.44;5095701;28;20047;-70
2023/12/31 04:27:26;;;;;;;0.70;0.70;;;;;;;0.45;89.13;99572.31;5097103;28;20036;-70
2023/12/31 04:29:55;;;;;;;1.73;1.40;;;;;;;0.63;89.31;99595.56;5095771;28;20284;-70
2023/12/31 04:32:25;;;;;;;1.73;1.63;;;;;;;0.55;88.92;99575.19;5095733;28;20028;-70
2023/12/31 04:34:54;;;;;;;1.63;1.52;;;;;;;0.70;88.91;99589.16;5096725;28;20043;-70
2023/12/31 04:37:23;;;;;;;1.52;1.45;;;;;;;0.66;89.28;99584.00;5096923;28;20044;-70
2023/12/31 04:39:53;;;;;;;0.98;0.93;;;;;;;0.74;89.62;99588.44;5097082;28;20055;-70
2023/12/31 04:42:22;;;;;;;1.95;1.85;;;;;;;0.73;89.92;99581.69;5096756;28;20047;-70
2023/12/31 04:44:53;;;;;;;0.50;0.50;;;;;;;0.80;89.24;99586.13;5095545;28;20512;-70
2023/12/31 04:47:22;;;;;;;1.05;1.05;;;;;;;0.79;89.11;99580.28;5095402;28;20387;-70
2023/12/31 04:49:51;;;;;;;2.78;2.58;;;;;;;0.80;89.27;99581.13;5078561;28;20040;-70
2023/12/31 04:52:20;;;;;;;1.15;1.08;;;;;;;0.72;89.79;99578.31;5096360;28;20119;-70
2023/12/31 04:54:51;;;;;;;1.47;1.37;;;;;;;0.73;89.75;99571.66;5096461;28;20130;-70
2023/12/31 04:57:21;;;;;;;3.88;3.10;;;;;;;0.76;89.52;99580.16;5096587;28;20482;-70
2023/12/31 04:59:50;;;;;;;2.75;2.55;;;;;;;0.77;89.63;99576.84;5096364;28;20032;-70
2023/12/31 05:02:19;;;;;;;3.73;2.30;;;;;;;0.74;89.63;99566.72;5094903;28;20490;-70
2023/12/31 05:04:48;;;;;;;1.00;1.00;;;;;;;0.49;90.37;99522.28;5095995;28;20143;-70
2023/12/31 05:07:17;;;;;;;0.50;0.50;;;;;;;0.84;89.90;99573.75;5095928;28;20040;-70
2023/12/31 05:09:46;;;;;;;1.30;1.20;;;;;;;0.83;90.24;99556.97;5095918;28;20097;-70
2023/12/31 05:12:15;;;;;;;0.88;0.88;;;;;;;1.00;90.32;99571.00;5094432;28;20451;-70
2023/12/31 05:14:45;;;;;;;1.52;1.42;;;;;;;1.07;90.12;99577.09;5096073;28;20040;-70
2023/12/31 05:17:15;;;;;;;2.50;2.30;;;;;;;1.10;90.66;99578.06;5096241;28;20059;-69
2023/12/31 05:19:45;;;;;;;0.70;0.70;;;;;;;1.14;89.96;99568.94;5096209;28;20387;-69
2023/12/31 05:22:14;;;;;;;1.40;1.30;;;;;;;1.19;90.46;99565.81;5096038;28;20054;-69
2023/12/31 05:24:43;;;;;;;1.57;1.47;;;;;;;1.22;90.45;99552.50;5077796;28;20055;-70
2023/12/31 05:27:12;;;;;;;0.82;0.82;;;;;;;1.28;90.17;99553.53;5095098;28;20357;-69
2023/12/31 05:29:41;;;;;;;2.60;2.40;;;;;;;1.34;90.87;99552.91;5095884;28;20048;-69
2023/12/31 05:32:11;;;;;;;0.85;0.85;;;;;;;1.41;91.48;99546.41;5095883;28;20040;-69
2023/12/31 05:34:41;;;;;;;1.35;1.25;;;;;;;1.12;90.68;99493.53;5095977;28;20490;-69
2023/12/31 05:37:10;;;;;;;1.33;1.25;;;;;;;1.38;91.12;99533.72;5094514;28;20048;-69
2023/12/31 05:39:38;;;;;;;0.97;0.93;;;;;;;1.44;91.05;99544.00;5095671;28;20375;-69
2023/12/31 05:42:07;;;;;;;1.00;0.98;;;;;;;1.47;91.31;99541.56;5095360;28;20036;-69
2023/12/31 05:44:36;;;;;;;0.60;0.60;;;;;;;1.48;90.70;99535.75;5077427;28;20090;-69
2023/12/31 05:47:05;;;;;;;0.87;0.87;;;;;;;1.52;91.48;99527.50;5095508;28;20445;-69
2023/12/31 05:49:35;;;;;;;1.42;1.17;;;;;;;1.57;91.00;99531.00;5095769;28;20039;-69
2023/12/31 05:52:07;;;;;;;2.78;2.58;;;;;;;1.61;91.25;99527.81;5094042;28;20040;-69
2023/12/31 05:54:39;;;;;;;1.38;1.27;;;;;;;1.62;91.24;99530.38;5095672;28;20039;-68
2023/12/31 05:57:08;;;;;;;0.98;0.98;;;;;;;1.61;91.22;99517.75;5095620;28;20532;-68
2023/12/31 05:59:37;;;;;;;0.57;0.57;;;;;;;1.67;91.46;99528.00;5095358;28;20040;-68
2023/12/31 06:02:07;;;;;;;1.30;1.20;;;;;;;1.72;91.52;99521.44;5093779;28;20490;-68
2023/12/31 06:04:37;;;;;;;1.60;1.50;;;;;;;1.74;92.21;99517.31;5094953;28;20789;-67
2023/12/31 06:07:06;;;;;;;0.68;0.68;;;;;;;1.77;92.23;99525.81;5095099;28;20107;-68
2023/12/31 06:09:35;;;;;;;1.80;1.70;;;;;;;1.80;91.66;99520.03;5095097;28;20044;-67
2023/12/31 06:12:04;;;;;;;1.00;1.00;;;;;;;1.83;91.70;99515.06;5095070;28;20350;-67
2023/12/31 06:14:33;;;;;;;0.98;0.98;;;;;;;1.88;91.77;99513.56;5094745;28;20406;-67
2023/12/31 06:17:02;;;;;;;1.08;1.00;;;;;;;1.91;92.51;99506.13;5095258;28;20455;-67
2023/12/31 06:19:30;;;;;;;4.70;3.00;;;;;;;1.95;92.51;99505.38;5094800;28;20033;-67
2023/12/31 06:22:02;;;;;;;1.00;1.00;;;;;;;1.99;92.18;99492.13;5094733;28;20052;-67
2023/12/31 06:24:30;;;;;;;1.52;1.30;;;;;;;2.01;92.45;99496.38;5094486;28;20052;-66
2023/12/31 06:27:00;;;;;;;1.70;1.60;;;;;;;2.04;92.54;99496.47;5094814;28;20367;-67
2023/12/31 06:29:29;;;;;;;1.25;1.15;;;;;;;2.07;91.99;99495.69;5094398;28;20287;-68
2023/12/31 06:31:58;;;;;;;0.83;0.83;;;;;;;2.12;92.18;99490.78;5094684;28;20046;-68
2023/12/31 06:34:27;;;;;;;2.40;2.05;;;;;;;2.12;92.71;99484.09;5094335;28;20277;-67
2023/12/31 06:36:56;;;;;;;1.25;1.15;;;;;;;2.09;93.16;99486.53;5094505;28;20047;-67
2023/12/31 06:39:26;;;;;;;2.00;1.80;;;;;;;2.09;92.34;99489.03;5094385;28;20078;-68
2023/12/31 06:41:55;;;;;;;1.73;1.63;;;;;;;2.09;92.72;99494.06;5094379;28;20051;-67
2023/12/31 06:44:24;;;;;;;8.07;2.00;;;;;;;2.09;92.88;99494.06;5094565;28;20047;-68
2023/12/31 06:46:53;;;;;;;11.33;3.90;;;;;;;2.11;92.95;99484.94;5094269;28;20059;-66
2023/12/31 06:49:22;;;;;;;3.92;3.30;;;;;;;2.12;93.17;99479.06;5094482;28;20024;-67
2023/12/31 06:51:51;;;;;;;1.20;1.10;;;;;;;2.14;92.64;99482.47;5094196;28;20052;-68
2023/12/31 06:54:20;;;;;;;1.67;1.53;;;;;;;2.18;93.40;99474.22;5094419;28;20059;-67
2023/12/31 06:56:50;;;;;;;1.67;1.57;;;;;;;2.18;93.31;99479.25;5093095;28;20276;-66
2023/12/31 06:59:19;;;;;;;0.63;0.63;;;;;;;2.21;93.45;99491.91;5094391;28;20772;-67
2023/12/31 07:01:48;;;;;;;2.30;2.10;;;;;;;2.25;92.95;99488.69;5094038;28;20055;-67
2023/12/31 07:04:17;;;;;;;2.33;1.63;;;;;;;2.28;93.58;99491.28;5093754;28;20052;-68
2023/12/31 07:06:48;;;;;;;0.60;0.60;;;;;;;2.32;93.33;99482.16;5094259;28;20041;-68
2023/12/31 07:09:17;;;;;;;2.40;2.20;;;;;;;2.37;93.67;99484.00;5094265;28;20371;-69
2023/12/31 07:11:46;;;;;;;1.98;1.88;;;;;;;2.42;93.87;99479.97;5094132;28;20099;-69
2023/12/31 07:14:16;;;;;;;3.23;1.93;;;;;;;2.45;93.67;99475.00;5091815;28;20457;-69
2023/12/31 07:16:45;;;;;;;3.42;1.90;;;;;;;2.50;93.69;99477.63;5093415;28;20506;-68
2023/12/31 07:19:14;;;;;;;1.35;1.25;;;;;;;2.55;93.90;99483.66;5092585;28;20390;-68
2023/12/31 07:21:44;;;;;;;1.73;1.63;;;;;;;2.58;93.86;99476.19;5093607;28;20397;-67
2023/12/31 07:24:13;;;;;;;3.22;1.73;;;;;;;2.61;93.72;99477.13;5093976;28;20062;-67
2023/12/31 07:26:42;;;;;;;1.58;1.48;;;;;;;2.68;93.88;99479.00;5094279;28;20044;-67
2023/12/31 07:29:11;;;;;;;0.53;0.53;;;;;;;2.67;93.76;99482.31;5093617;28;20094;-67
2023/12/31 07:31:42;;;;;;;0.60;0.60;;;;;;;2.73;93.42;99477.44;5093941;28;20082;-68
2023/12/31 07:34:11;;;;;;;3.35;3.03;;;;;;;2.80;93.46;99477.63;5093890;28;20066;-67
2023/12/31 07:36:40;;;;;;;1.20;1.10;;;;;;;2.87;94.32;99464.38;5094691;28;20431;-67
2023/12/31 07:39:09;;;;;;;1.77;1.67;;;;;;;2.92;93.95;99470.38;5093797;28;20608;-67
2023/12/31 07:41:38;;;;;;;1.33;1.23;;;;;;;2.99;94.14;99463.03;5092201;28;20400;-67
2023/12/31 07:44:07;;;;;;;0.93;0.93;;;;;;;3.04;93.67;99458.09;5092581;28;20044;-67
2023/12/31 07:46:37;;;;;;;2.43;1.37;;;;;;;3.05;93.69;99460.66;5093749;28;20036;-67
2023/12/31 07:49:08;;;;;;;1.02;0.98;;;;;;;3.10;93.63;99463.28;5093888;28;20284;-66
2023/12/31 07:51:37;;;;;;;1.40;1.30;;;;;;;3.11;93.98;99462.47;5096603;28;20048;-68
2023/12/31 07:54:06;;;;;;;1.17;1.10;;;;;;;3.13;94.27;99455.81;5098163;28;20389;-68
2023/12/31 07:56:35;;;;;;;3.78;3.20;;;;;;;3.13;94.22;99450.75;5097541;28;20059;-67
2023/12/31 07:59:04;;;;;;;1.80;1.67;;;;;;;3.18;93.92;99456.78;5097117;28;20032;-67
2023/12/31 08:01:32;;;;;;;2.50;2.33;;;;;;;3.20;93.80;99452.63;5101364;28;20039;-67
2023/12/31 08:04:01;;;;;;;3.87;2.67;;;;;;;3.24;94.07;99447.69;5117924;28;20435;-67
2023/12/31 08:06:32;;;;;;;1.30;1.23;;;;;;;3.26;93.77;99450.25;5116477;28;20036;-68
2023/12/31 08:09:01;;;;;;;1.75;1.65;;;;;;;3.29;94.40;99440.22;5117871;28;20036;-68
2023/12/31 08:11:30;;;;;;;3.20;2.67;;;;;;;3.31;94.04;99443.66;5117515;28;20047;-68
2023/12/31 08:13:58;;;;;;;1.67;1.58;;;;;;;3.34;93.89;99443.72;5117423;28;20532;-67
2023/12/31 08:16:27;;;;;;;2.47;2.17;;;;;;;3.36;94.40;99432.84;5116238;28;20450;-67
2023/12/31 08:18:56;;;;;;;2.90;2.70;;;;;;;3.39;94.68;99432.06;5117374;28;20039;-67
2023/12/31 08:21:25;;;;;;;0.73;0.73;;;;;;;3.41;94.42;99432.13;5116844;27;20122;-67
2023/12/31 08:23:56;;;;;;;4.70;1.35;;;;;;;3.44;94.64;99440.59;5106504;28;20048;-68
2023/12/31 08:26:25;;;;;;;2.70;2.47;;;;;;;3.44;94.20;99422.94;5105611;28;20039;-67
2023/12/31 08:28:54;;;;;;;2.80;2.05;;;;;;;3.53;94.61;99430.72;5096849;28;20121;-68
2023/12/31 08:31:22;;;;;;;3.50;2.13;;;;;;;3.56;94.53;99430.78;5097126;28;20093;-67
2023/12/31 08:33:51;;;;;;;6.45;3.83;;;;;;;3.58;94.58;99433.34;5096839;28;20044;-67
2023/12/31 08:36:20;;;;;;;1.30;1.20;;;;;;;3.61;94.54;99419.13;5096687;28;20048;-67
2023/12/31 08:38:49;;;;;;;0.57;0.57;;;;;;;3.65;94.55;99425.09;5096774;28;20360;-68
2023/12/31 08:41:20;;;;;;;0.53;0.53;;;;;;;3.70;94.14;99413.44;5097000;28;20040;-66
2023/12/31 08:43:50;;;;;;;1.23;1.05;;;;;;;3.73;94.49;99416.03;5096644;28;20044;-65
2023/12/31 08:46:19;;;;;;;2.78;2.28;;;;;;;3.80;94.90;99422.91;5095535;28;20494;-66
2023/12/31 08:48:48;;;;;;;3.78;2.35;;;;;;;3.82;94.54;99409.50;5096815;28;20040;-66
2023/12/31 08:51:19;;;;;;;1.55;1.38;;;;;;;3.84;94.83;99417.13;5096583;28;20048;-65
2023/12/31 08:53:48;;;;;;;0.80;0.80;;;;;;;3.87;94.42;99417.16;5095552;28;20044;-67
2023/12/31 08:56:16;;;;;;;0.88;0.88;;;;;;;3.85;94.65;99406.19;5096387;28;20044;-66
2023/12/31 08:58:47;;;;;;;2.03;1.83;;;;;;;3.91;94.39;99408.88;5096611;28;20064;-66
2023/12/31 09:01:18;;;;;;;1.33;1.23;;;;;;;3.93;94.53;99407.22;5095316;28;20280;-65
2023/12/31 09:03:47;;;;;;;1.98;1.83;;;;;;;3.95;94.77;99406.44;5094851;28;20380;-66
2023/12/31 09:06:17;;;;;;;0.80;0.80;;;;;;;3.98;94.70;99398.91;5096473;28;20127;-66
2023/12/31 09:08:46;;;;;;;1.58;1.30;;;;;;;4.01;94.65;99398.97;5096171;28;20056;-65
2023/12/31 09:11:16;;;;;;;0.93;0.93;;;;;;;4.04;94.67;99388.94;5096302;28;20042;-67
2023/12/31 09:13:47;;;;;;;1.85;1.15;;;;;;;4.09;95.11;99386.50;5096098;28;20131;-65
2023/12/31 09:16:16;;;;;;;1.15;1.10;;;;;;;4.12;94.87;99383.19;5095201;28;20043;-67
2023/12/31 09:18:45;;;;;;;0.57;0.57;;;;;;;4.16;95.07;99373.19;5100767;28;20027;-66
2023/12/31 09:21:14;;;;;;;1.48;1.02;;;;;;;4.19;94.78;99373.25;5103826;28;20085;-67
2023/12/31 09:23:43;;;;;;;1.60;1.17;;;;;;;4.25;95.20;99364.94;5107220;28;20039;-66
2023/12/31 09:26:12;;;;;;;11.23;2.57;;;;;;;4.29;95.06;99356.59;5100993;28;20033;-65
2023/12/31 09:28:42;;;;;;;2.58;2.38;;;;;;;4.43;95.10;99367.81;5100677;27;20283;-68
2023/12/31 09:31:13;;;;;;;3.38;2.20;;;;;;;4.49;95.58;99352.75;5103819;28;20060;-67
2023/12/31 09:33:42;;;;;;;2.95;2.38;;;;;;;4.54;95.38;99343.56;5095949;28;20040;-66
2023/12/31 10:03:44;;;;;;;1.38;1.00;;;;;;;7.70;95.71;99314.28;5132268;27;20372;-64
2023/12/31 10:06:14;;;;;;;1.08;1.02;;;;;;;7.87;95.42;99313.47;5132184;28;20130;-64
2023/12/31 10:08:44;;;;;;;0.57;0.57;;;;;;;7.98;93.44;99306.78;5133079;27;20422;-64
2023/12/31 10:11:13;;;;;;;0.40;0.40;;;;;;;8.05;92.00;99298.31;5132358;27;20039;-63
2023/12/31 10:13:42;;;;;;;0.53;0.53;;;;;;;8.26;91.30;99291.56;5132088;27;20404;-64
2023/12/31 10:16:15;;;;;;;1.43;0.70;;;;;;;8.31;90.77;99300.09;5130448;28;20092;-65
2023/12/31 10:18:45;;;;;;;1.60;1.17;;;;;;;8.37;89.49;99306.06;5131835;27;20733;-65
2023/12/31 10:21:15;;;;;;;0.40;0.40;;;;;;;8.42;89.12;99293.34;5131882;27;20039;-66
2023/12/31 10:23:44;;;;;;;0.88;0.88;;;;;;;8.50;88.76;99299.28;5131530;27;20039;-66
2023/12/31 10:26:17;;;;;;;0.60;0.60;;;;;;;8.56;88.49;99296.75;5131430;28;20069;-64
2023/12/31 10:28:45;;;;;;;0.40;0.40;;;;;;;8.65;87.67;99292.53;5130414;28;20043;-66
2023/12/31 10:31:16;;;;;;;0.68;0.68;;;;;;;8.68;87.15;99268.78;5131303;28;20046;-66
2023/12/31 10:33:46;;;;;;;0.73;0.73;;;;;;;9.00;86.84;99273.88;5129163;28;20126;-66
2023/12/31 10:36:20;;;;;;;0.65;0.65;;;;;;;9.13;86.35;99263.66;5130526;27;20153;-65
2023/12/31 10:38:51;;;;;;;4.40;2.30;;;;;;;9.21;85.19;99249.19;5130350;28;20050;-64
2023/12/31 10:41:24;;;;;;;0.70;0.70;;;;;;;9.23;85.02;99246.66;5127324;28;20128;-65
2023/12/31 10:43:53;;;;;;;0.50;0.50;;;;;;;9.20;84.78;99231.38;5129958;28;20544;-65
2023/12/31 10:46:26;;;;;;;0.50;0.50;;;;;;;9.20;84.39;99236.47;5128389;28;20043;-64
2023/12/31 10:49:03;;;;;;;1.25;1.15;;;;;;;9.17;84.36;99222.06;5128661;28;20031;-65
2023/12/31 10:51:36;;;;;;;0.75;0.75;;;;;;;9.08;84.67;99206.81;5129534;28;20040;-64
2023/12/31 10:54:08;;;;;;;0.88;0.75;;;;;;;9.23;84.80;99206.78;5110636;28;20048;-64
2023/12/31 10:56:37;;;;;;;1.40;1.33;;;;;;;9.24;83.93;99213.56;5110469;28;20093;-65
2023/12/31 10:59:07;;;;;;;;;;;;;;;9.27;83.75;99213.56;5111007;28;20032;-65
2023/12/31 11:01:36;;;;;;;0.85;0.85;;;;;;;9.30;83.98;99203.38;5110752;28;20362;-65
2023/12/31 11:04:07;;;;;;;0.45;0.45;;;;;;;9.31;83.79;99202.50;5110188;28;20109;-65
2023/12/31 11:06:37;;;;;;;0.30;0.30;;;;;;;9.31;83.92;99205.03;5109141;28;20040;-65
2023/12/31 11:09:06;;;;;;;;;;;;;;;9.30;83.62;99185.53;5110938;28;20561;-65
2023/12/31 11:11:36;;;;;;;0.45;0.45;;;;;;;9.31;83.52;99189.75;5110448;28;19920;-64
2023/12/31 11:14:06;;;;;;;;;;;;;;;9.32;83.28;99182.97;5103370;28;20470;-64
2023/12/31 11:16:53;;;;;;;4.50;1.17;;;;;;;9.31;82.90;99183.81;5095465;28;19920;-64
2023/12/31 11:19:43;;;;;;;1.83;1.73;;;;;;;9.34;82.90;99161.75;5096479;28;20487;-64
2023/12/31 11:22:34;;;;;;;1.35;1.05;;;;;;;9.36;83.16;99169.38;5096579;28;20478;-64
2023/12/31 11:25:07;;;;;;;1.08;0.82;;;;;;;9.36;83.04;99171.91;5096657;28;20397;-64
2023/12/31 11:27:37;;;;;;;;;;;;;;;9.37;82.66;99169.38;5095536;28;20440;-64
2023/12/31 11:30:06;;;;;;;;;;;;;;;9.37;82.42;99159.19;5096770;28;20439;-64
2023/12/31 11:32:36;;;;;;;0.73;0.73;;;;;;;9.35;82.19;99170.25;5096114;28;19920;-64
2023/12/31 11:35:07;;;;;;;0.50;0.50;;;;;;;9.36;82.46;99146.44;5096752;28;20127;-64
2023/12/31 11:37:38;;;;;;;0.82;0.75;;;;;;;9.37;82.26;99130.31;5096036;28;20055;-64
2023/12/31 11:40:09;;;;;;;0.43;0.43;;;;;;;9.34;82.67;99126.09;5096066;28;20150;-64
2023/12/31 11:42:38;;;;;;;1.23;1.13;;;;;;;9.36;82.14;99116.75;5095888;28;20048;-64
2023/12/31 11:45:28;;;;;;;0.80;0.80;;;;;;;9.36;82.30;99121.84;5096240;28;20050;-64
2023/12/31 11:47:57;;;;;;;;;;;;;;;9.41;82.15;99129.44;5096384;28;20443;-64
2023/12/31 11:50:27;;;;;;;1.13;0.83;;;;;;;9.51;82.21;99125.16;5096106;28;19965;-63
2023/12/31 11:52:56;;;;;;;4.68;1.83;;;;;;;9.54;82.60;99114.97;5096112;28;20068;-64
2023/12/31 11:55:37;;;;;;;0.82;0.65;;;;;;;9.49;82.61;99111.59;5095755;28;20131;-63
2023/12/31 11:58:08;;;;;;;0.95;0.93;;;;;;;9.44;83.02;99104.84;5096009;28;20138;-63
2023/12/31 12:00:37;;;;;;;0.60;0.60;;;;;;;9.43;83.13;99092.09;5094677;28;20124;-64
2023/12/31 12:03:07;;;;;;;0.52;0.52;;;;;;;9.45;82.96;99095.50;5093926;28;20044;-64
2023/12/31 12:05:39;;;;;;;1.30;1.20;;;;;;;9.41;83.35;99071.72;5095875;28;20047;-63
2023/12/31 12:08:12;;;;;;;0.60;0.60;;;;;;;9.49;82.73;99083.56;5095417;28;20051;-65
2023/12/31 12:10:42;;;;;;;0.68;0.68;;;;;;;9.51;82.09;99071.66;5095779;28;20048;-63
2023/12/31 12:13:12;;;;;;;1.08;0.93;;;;;;;9.54;81.59;99067.41;5094211;28;20051;-64
2023/12/31 12:15:41;;;;;;;0.77;0.68;;;;;;;9.56;81.01;99070.78;5095549;28;20063;-64
2023/12/31 12:18:28;;;;;;;1.27;1.17;;;;;;;9.56;81.65;99068.25;5094305;28;20055;-64
2023/12/31 12:20:58;;;;;;;1.13;1.13;;;;;;;9.56;81.37;99052.09;5095471;28;20044;-63
2023/12/31 12:23:27;;;;;;;0.52;0.52;;;;;;;9.57;81.56;99049.56;5095152;28;20134;-64